sensor_id;sensor_type;location;lat;lon;timestamp;temperature;humidity
22779;DHT22;11556;51.194;3.800;2023-06-24T00:00:37;18.60;99.90
22779;DHT22;11556;51.194;3.800;2023-06-24T00:03:03;18.60;99.90
22779;DHT22;11556;51.194;3.800;2023-06-24T00:05:29;18.50;99.90
22779;DHT22;11556;51.194;3.800;2023-06-24T00:07:57;18.50;99.90
22779;DHT22;11556;51.194;3.800;2023-06-24T00:10:23;18.40;99.90
22779;DHT22;11556;51.194;3.800;2023-06-24T00:12:48;18.40;99.90
22779;DHT22;11556;51.194;3.800;2023-06-24T00:15:14;18.40;99.90
22779;DHT22;11556;51.194;3.800;2023-06-24T00:17:40;18.30;99.90
22779;DHT22;11556;51.194;3.800;2023-06-24T00:20:06;18.30;99.90
22779;DHT22;11556;51.194;3.800;2023-06-24T00:22:39;18.30;99.90
22779;DHT22;11556;51.194;3.800;2023-06-24T00:25:10;18.30;99.90
22779;DHT22;11556;51.194;3.800;2023-06-24T00:27:35;18.20;99.90
22779;DHT22;11556;51.194;3.800;2023-06-24T00:30:01;18.30;99.90
22779;DHT22;11556;51.194;3.800;2023-06-24T00:32:26;18.20;99.90
22779;DHT22;11556;51.194;3.800;2023-06-24T00:34:52;18.20;99.90
22779;DHT22;11556;51.194;3.800;2023-06-24T00:37:18;18.10;99.90
22779;DHT22;11556;51.194;3.800;2023-06-24T00:39:43;18.10;99.90
22779;DHT22;11556;51.194;3.800;2023-06-24T00:42:09;18.10;99.90
22779;DHT22;11556;51.194;3.800;2023-06-24T00:44:35;18.00;99.90
22779;DHT22;11556;51.194;3.800;2023-06-24T00:47:03;18.00;99.90
22779;DHT22;11556;51.194;3.800;2023-06-24T00:49:28;18.00;99.90
22779;DHT22;11556;51.194;3.800;2023-06-24T00:51:54;18.00;99.90
22779;DHT22;11556;51.194;3.800;2023-06-24T00:54:21;18.00;99.90
22779;DHT22;11556;51.194;3.800;2023-06-24T00:56:47;18.10;99.90
22779;DHT22;11556;51.194;3.800;2023-06-24T00:59:14;18.00;99.90
22779;DHT22;11556;51.194;3.800;2023-06-24T01:01:40;18.00;99.90
22779;DHT22;11556;51.194;3.800;2023-06-24T01:04:07;17.90;99.90
22779;DHT22;11556;51.194;3.800;2023-06-24T01:06:35;17.90;99.90
22779;DHT22;11556;51.194;3.800;2023-06-24T01:09:01;17.90;99.90
22779;DHT22;11556;51.194;3.800;2023-06-24T01:11:29;17.90;99.90
22779;DHT22;11556;51.194;3.800;2023-06-24T01:13:55;17.80;99.90
22779;DHT22;11556;51.194;3.800;2023-06-24T01:16:32;17.80;99.90
22779;DHT22;11556;51.194;3.800;2023-06-24T01:21:51;17.80;99.90
22779;DHT22;11556;51.194;3.800;2023-06-24T01:27:24;17.80;99.90
22779;DHT22;11556;51.194;3.800;2023-06-24T01:35:05;17.80;99.90
22779;DHT22;11556;51.194;3.800;2023-06-24T01:37:46;17.80;99.90
22779;DHT22;11556;51.194;3.800;2023-06-24T01:40:25;17.80;99.90
22779;DHT22;11556;51.194;3.800;2023-06-24T01:42:51;17.80;99.90
22779;DHT22;11556;51.194;3.800;2023-06-24T01:45:29;17.80;99.90
22779;DHT22;11556;51.194;3.800;2023-06-24T01:48:07;17.80;99.90
22779;DHT22;11556;51.194;3.800;2023-06-24T01:50:35;17.70;99.90
22779;DHT22;11556;51.194;3.800;2023-06-24T01:53:04;17.70;99.90
22779;DHT22;11556;51.194;3.800;2023-06-24T01:55:32;17.60;99.90
22779;DHT22;11556;51.194;3.800;2023-06-24T01:58:00;17.60;99.90
22779;DHT22;11556;51.194;3.800;2023-06-24T02:00:27;17.80;99.90
22779;DHT22;11556;51.194;3.800;2023-06-24T02:02:54;17.80;99.90
22779;DHT22;11556;51.194;3.800;2023-06-24T02:05:21;17.70;99.90
22779;DHT22;11556;51.194;3.800;2023-06-24T02:07:49;17.70;99.90
22779;DHT22;11556;51.194;3.800;2023-06-24T02:10:16;17.60;99.90
22779;DHT22;11556;51.194;3.800;2023-06-24T02:12:45;17.60;99.90
22779;DHT22;11556;51.194;3.800;2023-06-24T02:15:13;17.50;99.90
22779;DHT22;11556;51.194;3.800;2023-06-24T02:17:40;17.60;99.90
22779;DHT22;11556;51.194;3.800;2023-06-24T02:20:07;17.50;99.90
22779;DHT22;11556;51.194;3.800;2023-06-24T02:22:37;17.40;99.90
22779;DHT22;11556;51.194;3.800;2023-06-24T02:25:05;17.50;99.90
22779;DHT22;11556;51.194;3.800;2023-06-24T02:27:32;17.40;99.90
22779;DHT22;11556;51.194;3.800;2023-06-24T02:30:00;17.40;99.90
22779;DHT22;11556;51.194;3.800;2023-06-24T02:32:26;17.40;99.90
22779;DHT22;11556;51.194;3.800;2023-06-24T02:34:52;17.30;99.90
22779;DHT22;11556;51.194;3.800;2023-06-24T02:37:17;17.40;99.90
22779;DHT22;11556;51.194;3.800;2023-06-24T02:39:43;17.30;99.90
22779;DHT22;11556;51.194;3.800;2023-06-24T02:42:12;17.20;99.90
22779;DHT22;11556;51.194;3.800;2023-06-24T02:44:39;17.10;99.90
22779;DHT22;11556;51.194;3.800;2023-06-24T02:47:07;17.10;99.90
22779;DHT22;11556;51.194;3.800;2023-06-24T02:49:35;17.00;99.90
22779;DHT22;11556;51.194;3.800;2023-06-24T02:52:02;16.90;99.90
22779;DHT22;11556;51.194;3.800;2023-06-24T02:54:28;17.00;99.90
22779;DHT22;11556;51.194;3.800;2023-06-24T02:56:55;16.90;99.90
22779;DHT22;11556;51.194;3.800;2023-06-24T02:59:24;16.90;99.90
22779;DHT22;11556;51.194;3.800;2023-06-24T03:01:51;16.90;99.90
22779;DHT22;11556;51.194;3.800;2023-06-24T03:04:17;16.80;99.90
22779;DHT22;11556;51.194;3.800;2023-06-24T03:06:44;16.80;99.90
22779;DHT22;11556;51.194;3.800;2023-06-24T03:09:10;16.70;99.90
22779;DHT22;11556;51.194;3.800;2023-06-24T03:11:43;16.70;99.90
22779;DHT22;11556;51.194;3.800;2023-06-24T03:14:10;16.70;99.90
22779;DHT22;11556;51.194;3.800;2023-06-24T03:16:36;16.70;99.90
22779;DHT22;11556;51.194;3.800;2023-06-24T03:19:03;16.70;99.90
22779;DHT22;11556;51.194;3.800;2023-06-24T03:21:29;16.80;99.90
22779;DHT22;11556;51.194;3.800;2023-06-24T03:23:55;16.70;99.90
22779;DHT22;11556;51.194;3.800;2023-06-24T03:26:22;16.60;99.90
22779;DHT22;11556;51.194;3.800;2023-06-24T03:28:47;16.60;99.90
22779;DHT22;11556;51.194;3.800;2023-06-24T03:31:14;16.60;99.90
22779;DHT22;11556;51.194;3.800;2023-06-24T03:33:41;16.50;99.90
22779;DHT22;11556;51.194;3.800;2023-06-24T03:36:10;16.50;99.90
22779;DHT22;11556;51.194;3.800;2023-06-24T03:38:36;16.50;99.90
22779;DHT22;11556;51.194;3.800;2023-06-24T03:41:01;16.50;99.90
22779;DHT22;11556;51.194;3.800;2023-06-24T03:43:27;16.50;99.90
22779;DHT22;11556;51.194;3.800;2023-06-24T03:45:53;16.40;99.90
22779;DHT22;11556;51.194;3.800;2023-06-24T03:48:18;16.50;99.90
22779;DHT22;11556;51.194;3.800;2023-06-24T03:50:44;16.50;99.90
22779;DHT22;11556;51.194;3.800;2023-06-24T03:53:09;16.60;99.90
22779;DHT22;11556;51.194;3.800;2023-06-24T03:55:35;16.60;99.90
22779;DHT22;11556;51.194;3.800;2023-06-24T03:58:00;16.60;99.90
22779;DHT22;11556;51.194;3.800;2023-06-24T04:00:26;16.50;99.90
22779;DHT22;11556;51.194;3.800;2023-06-24T04:02:52;16.50;99.90
22779;DHT22;11556;51.194;3.800;2023-06-24T04:05:19;16.60;99.90
22779;DHT22;11556;51.194;3.800;2023-06-24T04:07:45;16.50;99.90
22779;DHT22;11556;51.194;3.800;2023-06-24T04:10:16;16.50;99.90
22779;DHT22;11556;51.194;3.800;2023-06-24T04:12:42;16.50;99.90
22779;DHT22;11556;51.194;3.800;2023-06-24T04:15:08;16.60;99.90
22779;DHT22;11556;51.194;3.800;2023-06-24T04:17:34;16.60;99.90
22779;DHT22;11556;51.194;3.800;2023-06-24T04:20:00;16.50;99.90
22779;DHT22;11556;51.194;3.800;2023-06-24T04:22:28;16.50;99.90
22779;DHT22;11556;51.194;3.800;2023-06-24T04:24:53;16.60;99.90
22779;DHT22;11556;51.194;3.800;2023-06-24T04:27:19;16.60;99.90
22779;DHT22;11556;51.194;3.800;2023-06-24T04:29:45;16.60;99.90
22779;DHT22;11556;51.194;3.800;2023-06-24T04:32:11;16.70;99.90
22779;DHT22;11556;51.194;3.800;2023-06-24T04:34:36;16.70;99.90
22779;DHT22;11556;51.194;3.800;2023-06-24T04:37:02;16.80;99.90
22779;DHT22;11556;51.194;3.800;2023-06-24T04:39:28;16.90;99.90
22779;DHT22;11556;51.194;3.800;2023-06-24T04:41:53;16.90;99.90
22779;DHT22;11556;51.194;3.800;2023-06-24T04:44:19;17.40;99.90
22779;DHT22;11556;51.194;3.800;2023-06-24T04:46:46;17.90;99.90
22779;DHT22;11556;51.194;3.800;2023-06-24T04:49:11;18.00;99.90
22779;DHT22;11556;51.194;3.800;2023-06-24T04:51:37;18.00;99.90
22779;DHT22;11556;51.194;3.800;2023-06-24T04:54:03;18.90;99.90
22779;DHT22;11556;51.194;3.800;2023-06-24T04:56:29;19.80;99.90
22779;DHT22;11556;51.194;3.800;2023-06-24T04:58:55;21.20;99.90
22779;DHT22;11556;51.194;3.800;2023-06-24T05:01:21;22.30;99.90
22779;DHT22;11556;51.194;3.800;2023-06-24T05:03:47;23.00;99.90
22779;DHT22;11556;51.194;3.800;2023-06-24T05:06:13;24.00;99.90
22779;DHT22;11556;51.194;3.800;2023-06-24T05:08:40;24.30;99.90
22779;DHT22;11556;51.194;3.800;2023-06-24T05:11:06;25.50;99.90
22779;DHT22;11556;51.194;3.800;2023-06-24T05:13:31;26.60;99.90
22779;DHT22;11556;51.194;3.800;2023-06-24T05:15:57;26.60;99.90
22779;DHT22;11556;51.194;3.800;2023-06-24T05:18:22;27.30;99.90
22779;DHT22;11556;51.194;3.800;2023-06-24T05:20:48;28.20;98.80
22779;DHT22;11556;51.194;3.800;2023-06-24T05:23:13;28.80;95.40
22779;DHT22;11556;51.194;3.800;2023-06-24T05:25:39;29.30;93.70
22779;DHT22;11556;51.194;3.800;2023-06-24T05:28:05;29.00;92.80
22779;DHT22;11556;51.194;3.800;2023-06-24T05:30:30;28.90;92.40
22779;DHT22;11556;51.194;3.800;2023-06-24T05:32:56;29.10;91.80
22779;DHT22;11556;51.194;3.800;2023-06-24T05:35:21;29.80;90.50
22779;DHT22;11556;51.194;3.800;2023-06-24T05:37:47;30.70;87.10
22779;DHT22;11556;51.194;3.800;2023-06-24T05:40:13;31.20;84.20
22779;DHT22;11556;51.194;3.800;2023-06-24T05:42:39;31.60;81.90
22779;DHT22;11556;51.194;3.800;2023-06-24T05:45:05;32.00;76.90
22779;DHT22;11556;51.194;3.800;2023-06-24T05:47:32;32.70;74.50
22779;DHT22;11556;51.194;3.800;2023-06-24T05:49:57;33.00;70.70
22779;DHT22;11556;51.194;3.800;2023-06-24T05:52:24;33.20;70.90
22779;DHT22;11556;51.194;3.800;2023-06-24T05:54:50;33.10;68.40
22779;DHT22;11556;51.194;3.800;2023-06-24T05:57:16;32.70;68.80
22779;DHT22;11556;51.194;3.800;2023-06-24T05:59:41;32.80;68.20
22779;DHT22;11556;51.194;3.800;2023-06-24T06:02:07;33.50;66.50
22779;DHT22;11556;51.194;3.800;2023-06-24T06:04:33;33.60;64.60
22779;DHT22;11556;51.194;3.800;2023-06-24T06:06:58;33.10;64.50
22779;DHT22;11556;51.194;3.800;2023-06-24T06:09:24;33.70;63.50
22779;DHT22;11556;51.194;3.800;2023-06-24T06:11:50;33.70;62.40
22779;DHT22;11556;51.194;3.800;2023-06-24T06:14:15;34.10;61.40
22779;DHT22;11556;51.194;3.800;2023-06-24T06:16:41;34.50;60.60
22779;DHT22;11556;51.194;3.800;2023-06-24T06:19:06;34.60;59.50
22779;DHT22;11556;51.194;3.800;2023-06-24T06:21:32;34.50;58.80
22779;DHT22;11556;51.194;3.800;2023-06-24T06:23:58;34.80;58.10
22779;DHT22;11556;51.194;3.800;2023-06-24T06:26:24;35.00;58.10
22779;DHT22;11556;51.194;3.800;2023-06-24T06:28:49;35.10;56.90
22779;DHT22;11556;51.194;3.800;2023-06-24T06:31:16;35.30;56.30
22779;DHT22;11556;51.194;3.800;2023-06-24T06:33:42;34.90;57.60
22779;DHT22;11556;51.194;3.800;2023-06-24T06:36:08;35.00;56.70
22779;DHT22;11556;51.194;3.800;2023-06-24T06:38:34;34.70;56.90
22779;DHT22;11556;51.194;3.800;2023-06-24T06:41:00;34.30;57.20
22779;DHT22;11556;51.194;3.800;2023-06-24T06:43:27;34.30;57.70
22779;DHT22;11556;51.194;3.800;2023-06-24T06:45:52;34.40;57.90
22779;DHT22;11556;51.194;3.800;2023-06-24T06:48:18;35.10;56.00
22779;DHT22;11556;51.194;3.800;2023-06-24T06:50:45;36.00;54.80
22779;DHT22;11556;51.194;3.800;2023-06-24T06:53:11;36.50;54.30
22779;DHT22;11556;51.194;3.800;2023-06-24T06:55:37;36.70;52.80
22779;DHT22;11556;51.194;3.800;2023-06-24T06:58:05;36.90;52.50
22779;DHT22;11556;51.194;3.800;2023-06-24T07:00:31;37.20;53.00
22779;DHT22;11556;51.194;3.800;2023-06-24T07:02:57;37.70;50.80
22779;DHT22;11556;51.194;3.800;2023-06-24T07:05:22;38.00;50.30
22779;DHT22;11556;51.194;3.800;2023-06-24T07:07:48;37.90;50.10
22779;DHT22;11556;51.194;3.800;2023-06-24T07:10:15;38.10;49.40
22779;DHT22;11556;51.194;3.800;2023-06-24T07:12:42;37.80;49.20
22779;DHT22;11556;51.194;3.800;2023-06-24T07:15:08;38.10;48.90
22779;DHT22;11556;51.194;3.800;2023-06-24T07:17:34;38.20;48.60
22779;DHT22;11556;51.194;3.800;2023-06-24T07:19:59;38.10;48.10
22779;DHT22;11556;51.194;3.800;2023-06-24T07:22:25;38.10;48.50
22779;DHT22;11556;51.194;3.800;2023-06-24T07:24:50;37.90;48.40
22779;DHT22;11556;51.194;3.800;2023-06-24T07:27:16;38.00;48.80
22779;DHT22;11556;51.194;3.800;2023-06-24T07:29:42;37.80;48.20
22779;DHT22;11556;51.194;3.800;2023-06-24T07:32:08;37.10;49.20
22779;DHT22;11556;51.194;3.800;2023-06-24T07:34:33;36.70;49.90
22779;DHT22;11556;51.194;3.800;2023-06-24T07:36:59;35.80;52.50
22779;DHT22;11556;51.194;3.800;2023-06-24T07:39:24;35.70;51.80
22779;DHT22;11556;51.194;3.800;2023-06-24T07:41:50;35.80;51.90
22779;DHT22;11556;51.194;3.800;2023-06-24T07:44:16;35.30;53.50
22779;DHT22;11556;51.194;3.800;2023-06-24T07:46:41;34.40;55.40
22779;DHT22;11556;51.194;3.800;2023-06-24T07:49:07;33.30;57.40
22779;DHT22;11556;51.194;3.800;2023-06-24T07:51:33;32.60;60.60
22779;DHT22;11556;51.194;3.800;2023-06-24T07:54:00;31.80;61.90
22779;DHT22;11556;51.194;3.800;2023-06-24T07:56:26;31.40;66.10
22779;DHT22;11556;51.194;3.800;2023-06-24T07:58:52;31.30;65.40
22779;DHT22;11556;51.194;3.800;2023-06-24T08:01:18;31.30;65.30
22779;DHT22;11556;51.194;3.800;2023-06-24T08:03:43;31.40;65.60
22779;DHT22;11556;51.194;3.800;2023-06-24T08:06:09;31.60;65.40
22779;DHT22;11556;51.194;3.800;2023-06-24T08:08:34;32.10;63.20
22779;DHT22;11556;51.194;3.800;2023-06-24T08:11:02;33.00;62.30
22779;DHT22;11556;51.194;3.800;2023-06-24T08:13:28;34.10;59.10
22779;DHT22;11556;51.194;3.800;2023-06-24T08:15:54;35.20;57.30
22779;DHT22;11556;51.194;3.800;2023-06-24T08:18:19;36.40;55.50
22779;DHT22;11556;51.194;3.800;2023-06-24T08:20:45;37.30;52.20
22779;DHT22;11556;51.194;3.800;2023-06-24T08:23:11;38.00;52.50
22779;DHT22;11556;51.194;3.800;2023-06-24T08:25:36;38.20;50.30
22779;DHT22;11556;51.194;3.800;2023-06-24T08:28:02;37.50;50.80
22779;DHT22;11556;51.194;3.800;2023-06-24T08:30:28;37.40;51.30
22779;DHT22;11556;51.194;3.800;2023-06-24T08:32:53;38.10;51.00
22779;DHT22;11556;51.194;3.800;2023-06-24T08:35:19;38.00;49.50
22779;DHT22;11556;51.194;3.800;2023-06-24T08:37:44;38.00;49.40
22779;DHT22;11556;51.194;3.800;2023-06-24T08:40:10;38.00;48.90
22779;DHT22;11556;51.194;3.800;2023-06-24T08:42:36;37.40;49.30
22779;DHT22;11556;51.194;3.800;2023-06-24T08:45:02;37.20;49.60
22779;DHT22;11556;51.194;3.800;2023-06-24T08:47:28;36.70;50.90
22779;DHT22;11556;51.194;3.800;2023-06-24T08:50:05;35.90;51.00
22779;DHT22;11556;51.194;3.800;2023-06-24T08:52:35;36.30;52.60
22779;DHT22;11556;51.194;3.800;2023-06-24T08:55:02;37.10;51.30
22779;DHT22;11556;51.194;3.800;2023-06-24T08:57:28;38.40;50.00
22779;DHT22;11556;51.194;3.800;2023-06-24T08:59:54;39.20;47.90
22779;DHT22;11556;51.194;3.800;2023-06-24T09:02:20;39.00;46.30
22779;DHT22;11556;51.194;3.800;2023-06-24T09:04:46;39.00;46.50
22779;DHT22;11556;51.194;3.800;2023-06-24T09:07:11;39.30;47.10
22779;DHT22;11556;51.194;3.800;2023-06-24T09:09:46;39.70;47.20
22779;DHT22;11556;51.194;3.800;2023-06-24T09:12:14;40.00;45.90
22779;DHT22;11556;51.194;3.800;2023-06-24T09:14:39;39.50;45.70
22779;DHT22;11556;51.194;3.800;2023-06-24T09:17:06;39.50;45.30
22779;DHT22;11556;51.194;3.800;2023-06-24T09:19:32;40.00;45.20
22779;DHT22;11556;51.194;3.800;2023-06-24T09:22:08;39.40;45.10
22779;DHT22;11556;51.194;3.800;2023-06-24T09:24:41;38.80;46.40
22779;DHT22;11556;51.194;3.800;2023-06-24T09:27:07;39.30;46.40
22779;DHT22;11556;51.194;3.800;2023-06-24T09:29:34;39.60;46.20
22779;DHT22;11556;51.194;3.800;2023-06-24T09:32:03;39.90;45.50
22779;DHT22;11556;51.194;3.800;2023-06-24T09:34:29;40.30;43.50
22779;DHT22;11556;51.194;3.800;2023-06-24T09:36:57;39.00;45.00
22779;DHT22;11556;51.194;3.800;2023-06-24T09:39:24;38.10;46.10
22779;DHT22;11556;51.194;3.800;2023-06-24T09:41:59;36.70;47.70
22779;DHT22;11556;51.194;3.800;2023-06-24T09:44:27;37.10;48.10
22779;DHT22;11556;51.194;3.800;2023-06-24T09:46:53;37.10;48.60
22779;DHT22;11556;51.194;3.800;2023-06-24T09:49:19;37.20;48.40
22779;DHT22;11556;51.194;3.800;2023-06-24T09:51:47;38.30;46.20
22779;DHT22;11556;51.194;3.800;2023-06-24T09:54:14;39.10;44.60
22779;DHT22;11556;51.194;3.800;2023-06-24T09:56:45;39.40;43.10
22779;DHT22;11556;51.194;3.800;2023-06-24T09:59:12;39.30;43.30
22779;DHT22;11556;51.194;3.800;2023-06-24T10:01:40;38.90;43.10
22779;DHT22;11556;51.194;3.800;2023-06-24T10:04:06;39.00;43.30
22779;DHT22;11556;51.194;3.800;2023-06-24T10:06:35;38.40;43.30
22779;DHT22;11556;51.194;3.800;2023-06-24T10:09:01;38.00;44.60
22779;DHT22;11556;51.194;3.800;2023-06-24T10:11:27;38.00;45.00
22779;DHT22;11556;51.194;3.800;2023-06-24T10:13:53;38.70;44.30
22779;DHT22;11556;51.194;3.800;2023-06-24T10:16:20;38.20;44.10
22779;DHT22;11556;51.194;3.800;2023-06-24T10:18:46;37.40;44.00
22779;DHT22;11556;51.194;3.800;2023-06-24T10:21:13;37.60;45.00
22779;DHT22;11556;51.194;3.800;2023-06-24T10:23:58;37.80;44.90
22779;DHT22;11556;51.194;3.800;2023-06-24T10:26:32;38.20;44.30
22779;DHT22;11556;51.194;3.800;2023-06-24T10:34:31;37.60;41.40
22779;DHT22;11556;51.194;3.800;2023-06-24T10:37:22;37.00;43.80
22779;DHT22;11556;51.194;3.800;2023-06-24T10:44:53;37.50;45.70
22779;DHT22;11556;51.194;3.800;2023-06-24T10:47:19;36.80;44.00
22779;DHT22;11556;51.194;3.800;2023-06-24T10:49:45;36.50;45.40
22779;DHT22;11556;51.194;3.800;2023-06-24T10:52:11;36.40;46.70
22779;DHT22;11556;51.194;3.800;2023-06-24T10:54:38;37.60;45.90
22779;DHT22;11556;51.194;3.800;2023-06-24T10:57:07;37.80;43.70
22779;DHT22;11556;51.194;3.800;2023-06-24T10:59:44;38.20;43.10
22779;DHT22;11556;51.194;3.800;2023-06-24T11:02:14;39.10;43.30
22779;DHT22;11556;51.194;3.800;2023-06-24T11:04:54;39.60;42.10
22779;DHT22;11556;51.194;3.800;2023-06-24T11:07:21;40.00;40.60
22779;DHT22;11556;51.194;3.800;2023-06-24T11:10:12;40.70;40.50
22779;DHT22;11556;51.194;3.800;2023-06-24T11:12:37;40.00;40.60
22779;DHT22;11556;51.194;3.800;2023-06-24T11:15:08;40.00;39.90
22779;DHT22;11556;51.194;3.800;2023-06-24T11:17:35;38.70;37.10
22779;DHT22;11556;51.194;3.800;2023-06-24T11:20:06;38.40;41.00
22779;DHT22;11556;51.194;3.800;2023-06-24T11:22:32;38.80;40.60
22779;DHT22;11556;51.194;3.800;2023-06-24T11:24:58;38.80;40.00
22779;DHT22;11556;51.194;3.800;2023-06-24T11:27:28;39.40;37.50
22779;DHT22;11556;51.194;3.800;2023-06-24T11:29:54;40.20;38.60
22779;DHT22;11556;51.194;3.800;2023-06-24T11:32:20;39.70;39.10
22779;DHT22;11556;51.194;3.800;2023-06-24T11:34:47;40.20;36.60
22779;DHT22;11556;51.194;3.800;2023-06-24T11:37:16;40.60;35.50
22779;DHT22;11556;51.194;3.800;2023-06-24T11:39:42;41.00;35.60
22779;DHT22;11556;51.194;3.800;2023-06-24T11:42:09;41.50;34.70
22779;DHT22;11556;51.194;3.800;2023-06-24T11:44:35;41.30;34.70
22779;DHT22;11556;51.194;3.800;2023-06-24T11:47:08;41.30;35.50
22779;DHT22;11556;51.194;3.800;2023-06-24T11:49:52;41.90;36.20
22779;DHT22;11556;51.194;3.800;2023-06-24T11:52:19;41.60;34.70
22779;DHT22;11556;51.194;3.800;2023-06-24T11:54:44;41.60;34.50
22779;DHT22;11556;51.194;3.800;2023-06-24T11:57:11;41.90;35.10
22779;DHT22;11556;51.194;3.800;2023-06-24T11:59:38;41.40;34.20
22779;DHT22;11556;51.194;3.800;2023-06-24T12:02:03;40.30;37.70
22779;DHT22;11556;51.194;3.800;2023-06-24T12:04:33;39.50;38.80
22779;DHT22;11556;51.194;3.800;2023-06-24T12:06:59;39.70;39.60
22779;DHT22;11556;51.194;3.800;2023-06-24T12:09:25;39.60;37.90
22779;DHT22;11556;51.194;3.800;2023-06-24T12:11:51;38.60;38.10
22779;DHT22;11556;51.194;3.800;2023-06-24T12:14:18;36.60;40.70
22779;DHT22;11556;51.194;3.800;2023-06-24T12:16:43;36.70;43.50
22779;DHT22;11556;51.194;3.800;2023-06-24T12:19:09;37.70;40.40
22779;DHT22;11556;51.194;3.800;2023-06-24T12:21:35;39.10;39.10
22779;DHT22;11556;51.194;3.800;2023-06-24T12:24:04;40.00;38.60
22779;DHT22;11556;51.194;3.800;2023-06-24T12:26:33;40.70;36.50
22779;DHT22;11556;51.194;3.800;2023-06-24T12:28:59;41.00;36.60
22779;DHT22;11556;51.194;3.800;2023-06-24T12:31:25;40.50;38.20
22779;DHT22;11556;51.194;3.800;2023-06-24T12:33:51;40.00;38.00
22779;DHT22;11556;51.194;3.800;2023-06-24T12:36:18;39.80;39.00
22779;DHT22;11556;51.194;3.800;2023-06-24T12:38:44;39.10;39.10
22779;DHT22;11556;51.194;3.800;2023-06-24T12:41:09;38.80;39.20
22779;DHT22;11556;51.194;3.800;2023-06-24T12:43:35;37.90;40.40
22779;DHT22;11556;51.194;3.800;2023-06-24T12:46:00;38.10;41.10
22779;DHT22;11556;51.194;3.800;2023-06-24T12:48:26;37.90;38.80
22779;DHT22;11556;51.194;3.800;2023-06-24T12:50:52;38.20;39.80
22779;DHT22;11556;51.194;3.800;2023-06-24T12:53:21;38.50;39.30
22779;DHT22;11556;51.194;3.800;2023-06-24T12:55:47;39.10;39.30
22779;DHT22;11556;51.194;3.800;2023-06-24T12:58:14;39.30;38.00
22779;DHT22;11556;51.194;3.800;2023-06-24T13:00:43;39.50;37.70
22779;DHT22;11556;51.194;3.800;2023-06-24T13:03:09;39.70;38.50
22779;DHT22;11556;51.194;3.800;2023-06-24T13:05:34;39.00;37.80
22779;DHT22;11556;51.194;3.800;2023-06-24T13:08:00;38.10;38.90
22779;DHT22;11556;51.194;3.800;2023-06-24T13:10:26;38.30;39.30
22779;DHT22;11556;51.194;3.800;2023-06-24T13:12:51;37.00;39.60
22779;DHT22;11556;51.194;3.800;2023-06-24T13:15:17;34.90;44.40
22779;DHT22;11556;51.194;3.800;2023-06-24T13:17:43;35.80;46.00
22779;DHT22;11556;51.194;3.800;2023-06-24T13:20:09;36.00;43.00
22779;DHT22;11556;51.194;3.800;2023-06-24T13:22:35;36.60;42.80
22779;DHT22;11556;51.194;3.800;2023-06-24T13:25:01;36.50;41.80
22779;DHT22;11556;51.194;3.800;2023-06-24T13:27:26;36.00;42.10
22779;DHT22;11556;51.194;3.800;2023-06-24T13:29:52;35.40;42.50
22779;DHT22;11556;51.194;3.800;2023-06-24T13:32:18;35.80;43.50
22779;DHT22;11556;51.194;3.800;2023-06-24T13:34:44;36.00;48.70
22779;DHT22;11556;51.194;3.800;2023-06-24T13:37:10;36.60;45.00
22779;DHT22;11556;51.194;3.800;2023-06-24T13:39:35;36.60;50.90
22779;DHT22;11556;51.194;3.800;2023-06-24T13:42:01;35.50;51.40
22779;DHT22;11556;51.194;3.800;2023-06-24T13:44:26;34.90;53.70
22779;DHT22;11556;51.194;3.800;2023-06-24T13:46:52;34.50;53.80
22779;DHT22;11556;51.194;3.800;2023-06-24T13:49:19;33.20;58.40
22779;DHT22;11556;51.194;3.800;2023-06-24T13:51:44;32.70;60.60
22779;DHT22;11556;51.194;3.800;2023-06-24T13:54:10;31.90;62.10
22779;DHT22;11556;51.194;3.800;2023-06-24T13:56:36;32.40;64.20
22779;DHT22;11556;51.194;3.800;2023-06-24T13:59:02;33.50;61.50
22779;DHT22;11556;51.194;3.800;2023-06-24T14:01:28;33.60;59.10
22779;DHT22;11556;51.194;3.800;2023-06-24T14:03:55;33.40;59.40
22779;DHT22;11556;51.194;3.800;2023-06-24T14:06:22;32.60;61.00
22779;DHT22;11556;51.194;3.800;2023-06-24T14:08:49;31.80;62.00
22779;DHT22;11556;51.194;3.800;2023-06-24T14:11:15;31.30;66.90
22779;DHT22;11556;51.194;3.800;2023-06-24T14:13:42;31.50;66.50
22779;DHT22;11556;51.194;3.800;2023-06-24T14:16:08;31.50;65.60
22779;DHT22;11556;51.194;3.800;2023-06-24T14:18:34;31.60;64.60
22779;DHT22;11556;51.194;3.800;2023-06-24T14:21:01;31.50;65.40
22779;DHT22;11556;51.194;3.800;2023-06-24T14:23:28;31.10;68.70
22779;DHT22;11556;51.194;3.800;2023-06-24T14:25:54;30.60;71.00
22779;DHT22;11556;51.194;3.800;2023-06-24T14:28:20;30.30;70.80
22779;DHT22;11556;51.194;3.800;2023-06-24T14:30:46;29.80;74.60
22779;DHT22;11556;51.194;3.800;2023-06-24T14:33:12;30.00;76.10
22779;DHT22;11556;51.194;3.800;2023-06-24T14:35:38;30.20;72.30
22779;DHT22;11556;51.194;3.800;2023-06-24T14:38:04;30.10;75.60
22779;DHT22;11556;51.194;3.800;2023-06-24T14:40:31;30.60;72.90
22779;DHT22;11556;51.194;3.800;2023-06-24T14:42:57;30.90;71.00
22779;DHT22;11556;51.194;3.800;2023-06-24T14:45:23;30.60;72.10
22779;DHT22;11556;51.194;3.800;2023-06-24T14:47:48;30.30;74.20
22779;DHT22;11556;51.194;3.800;2023-06-24T14:50:14;30.40;74.10
22779;DHT22;11556;51.194;3.800;2023-06-24T14:52:40;30.00;75.30
22779;DHT22;11556;51.194;3.800;2023-06-24T14:55:06;29.70;77.80
22779;DHT22;11556;51.194;3.800;2023-06-24T14:57:31;29.40;79.90
22779;DHT22;11556;51.194;3.800;2023-06-24T14:59:57;29.20;82.60
22779;DHT22;11556;51.194;3.800;2023-06-24T15:02:23;29.50;83.40
22779;DHT22;11556;51.194;3.800;2023-06-24T15:04:50;30.00;79.70
22779;DHT22;11556;51.194;3.800;2023-06-24T15:07:15;30.00;79.20
22779;DHT22;11556;51.194;3.800;2023-06-24T15:09:41;30.00;78.70
22779;DHT22;11556;51.194;3.800;2023-06-24T15:12:07;29.90;80.70
22779;DHT22;11556;51.194;3.800;2023-06-24T15:14:32;29.80;79.10
22779;DHT22;11556;51.194;3.800;2023-06-24T15:16:58;30.00;79.20
22779;DHT22;11556;51.194;3.800;2023-06-24T15:19:24;30.20;79.20
22779;DHT22;11556;51.194;3.800;2023-06-24T15:21:49;30.10;80.30
22779;DHT22;11556;51.194;3.800;2023-06-24T15:24:15;30.30;78.30
22779;DHT22;11556;51.194;3.800;2023-06-24T15:26:40;30.50;77.70
22779;DHT22;11556;51.194;3.800;2023-06-24T15:29:06;30.80;77.90
22779;DHT22;11556;51.194;3.800;2023-06-24T15:31:32;31.00;75.70
22779;DHT22;11556;51.194;3.800;2023-06-24T15:33:57;30.90;75.80
22779;DHT22;11556;51.194;3.800;2023-06-24T15:36:23;30.50;76.10
22779;DHT22;11556;51.194;3.800;2023-06-24T15:38:52;30.50;76.70
22779;DHT22;11556;51.194;3.800;2023-06-24T15:41:18;30.00;78.30
22779;DHT22;11556;51.194;3.800;2023-06-24T15:43:44;30.00;78.90
22779;DHT22;11556;51.194;3.800;2023-06-24T15:46:10;30.30;78.20
22779;DHT22;11556;51.194;3.800;2023-06-24T15:48:36;30.30;78.20